Somersville, Connecticut
Current Conditions -  °F | °C
As of 7:51 PM on Monday 20 Oct 2014 (Local Time) from KBDL Reporting Station
Overcast Overcast  
Wind Chill: 50°   Ceiling: 16000
Heat Index: 50°   Visibility: 10mi
Dew Point: 38°   Wind: 6mph
Humidity: 63%   Direction: 170°S
Pressure: 29.98"   Gusts: NA
Location:  41.98°N, 72.49°W
Report Text: KBDL 202351Z 17005KT 10SM FEW095 BKN160 OVC220 10/03 A2998 RMK AO2 SLP151 T01000033 10139 20094 53002
Loading
Personal Weather Stations






























Interactive Weather Map
Tropical Storm Tracking
New forecast layout! Learn more

10-Day Weather Forecast

Advertisements
Track Severe Weather on mobile